This is the latest recevied weather packets stored in our database for station/object EB5AGF-13. If no packets are shown the sender has not sent any weather packets the latest 10 day(s).
| Time | Temp. | Humidity | Pressure | Rain* | Wind** | Luminosity | Snow |
|---|---|---|---|---|---|---|---|
| 1777988855 | 21.67° C | 66% | 1007.8 hPa | 0 mm | 2.24 m/s, 186° | 568 W/m² | - |
| 1777988552 | 21.67° C | 66% | 1007.8 hPa | 0 mm | 3.58 m/s, 186° | 583 W/m² | - |
| 1777988251 | 22.78° C | 61% | 1007.9 hPa | 0 mm | 0.89 m/s, 181° | 593 W/m² | - |
| 1777987952 | 22.22° C | 63% | 1008 hPa | 0 mm | 1.79 m/s, 211° | 612 W/m² | - |
| 1777987652 | 22.22° C | 61% | 1008.2 hPa | 0 mm | 2.68 m/s, 186° | 622 W/m² | - |
| 1777987352 | 22.22° C | 63% | 1008.2 hPa | 0 mm | 4.47 m/s, 175° | 635 W/m² | - |
| 1777987047 | 21.67° C | 62% | 1008.3 hPa | 0 mm | 1.79 m/s, 186° | 635 W/m² | - |
| 1777986744 | 22.22° C | 65% | 1008.4 hPa | 0 mm | 2.68 m/s, 204° | 586 W/m² | - |
| 1777986440 | 23.33° C | 57% | 1008.6 hPa | 0 mm | 1.79 m/s, 234° | 616 W/m² | - |
| 1777986135 | 22.78° C | 55% | 1008.6 hPa | 0 mm | 0.89 m/s, 198° | 608 W/m² | - |
| 1777985831 | 22.22° C | 59% | 1008.4 hPa | 0 mm | 1.79 m/s, 210° | 660 W/m² | - |
| 1777985528 | 22.22° C | 59% | 1008.6 hPa | 0 mm | 4.02 m/s, 167° | 660 W/m² | - |
| 1777985226 | 22.22° C | 63% | 1008.6 hPa | 0 mm | 3.58 m/s, 185° | 659 W/m² | - |
| 1777984919 | 22.22° C | 58% | 1008.5 hPa | 0 mm | 3.58 m/s, 206° | 585 W/m² | - |
| 1777984615 | 22.22° C | 53% | 1008.5 hPa | 0 mm | 2.68 m/s, 239° | 645 W/m² | - |
| 1777984312 | 22.78° C | 54% | 1008.7 hPa | 0 mm | 3.13 m/s, 166° | 630 W/m² | - |
| 1777984008 | 21.67° C | 59% | 1008.7 hPa | 0 mm | 2.68 m/s, 220° | 423 W/m² | - |
| 1777983703 | 22.78° C | 61% | 1008.8 hPa | 0 mm | 3.13 m/s, 211° | 642 W/m² | - |
| 1777983399 | 22.22° C | 62% | 1008.8 hPa | 0 mm | 3.58 m/s, 228° | 637 W/m² | - |
| 1777983095 | 22.22° C | 65% | 1008.8 hPa | 0 mm | 2.68 m/s, 197° | 626 W/m² | - |
| 1777982795 | 22.78° C | 59% | 1008.8 hPa | 0 mm | 3.13 m/s, 194° | 651 W/m² | - |
| 1777982491 | 22.22° C | 61% | 1008.8 hPa | 0 mm | 2.68 m/s, 66° | 661 W/m² | - |
| 1777982192 | 22.22° C | 57% | 1008.9 hPa | 0 mm | 1.79 m/s, 193° | 651 W/m² | - |
| 1777981891 | 22.22° C | 56% | 1008.9 hPa | 0 mm | 2.24 m/s, 232° | 628 W/m² | - |
| 1777981591 | 22.78° C | 54% | 1008.9 hPa | 0 mm | 4.02 m/s, 184° | 642 W/m² | - |
* Rain latest hour (hover to see other rain measurements)
** Current wind speed in m/s (hover to see current wind gust speed)